sensor_id;sensor_type;location;lat;lon;timestamp;P1;durP1;ratioP1;P2;durP2;ratioP2
15486;SDS011;7845;53.698;10.078;2023-04-24T00:02:18;3.90;;;2.57;;
15486;SDS011;7845;53.698;10.078;2023-04-24T00:04:43;4.10;;;2.50;;
15486;SDS011;7845;53.698;10.078;2023-04-24T00:07:14;4.43;;;2.90;;
15486;SDS011;7845;53.698;10.078;2023-04-24T00:09:42;6.20;;;3.37;;
15486;SDS011;7845;53.698;10.078;2023-04-24T00:12:19;4.57;;;2.63;;
15486;SDS011;7845;53.698;10.078;2023-04-24T00:14:44;5.37;;;3.27;;
15486;SDS011;7845;53.698;10.078;2023-04-24T00:17:13;4.10;;;2.60;;
15486;SDS011;7845;53.698;10.078;2023-04-24T00:19:38;4.50;;;2.50;;
15486;SDS011;7845;53.698;10.078;2023-04-24T00:22:10;4.13;;;2.80;;
15486;SDS011;7845;53.698;10.078;2023-04-24T00:24:35;4.17;;;2.70;;
15486;SDS011;7845;53.698;10.078;2023-04-24T00:27:01;4.17;;;3.00;;
15486;SDS011;7845;53.698;10.078;2023-04-24T00:29:32;4.70;;;2.80;;
15486;SDS011;7845;53.698;10.078;2023-04-24T00:31:58;4.53;;;2.87;;
15486;SDS011;7845;53.698;10.078;2023-04-24T00:34:23;3.90;;;2.43;;
15486;SDS011;7845;53.698;10.078;2023-04-24T00:36:48;6.70;;;2.80;;
15486;SDS011;7845;53.698;10.078;2023-04-24T00:39:20;4.00;;;2.50;;
15486;SDS011;7845;53.698;10.078;2023-04-24T00:41:51;4.43;;;3.00;;
15486;SDS011;7845;53.698;10.078;2023-04-24T00:44:18;4.70;;;3.00;;
15486;SDS011;7845;53.698;10.078;2023-04-24T00:46:45;4.30;;;2.67;;
15486;SDS011;7845;53.698;10.078;2023-04-24T00:49:10;4.20;;;3.30;;
15486;SDS011;7845;53.698;10.078;2023-04-24T00:51:37;3.90;;;2.33;;
15486;SDS011;7845;53.698;10.078;2023-04-24T00:54:02;4.07;;;2.50;;
15486;SDS011;7845;53.698;10.078;2023-04-24T00:56:28;4.60;;;2.43;;
15486;SDS011;7845;53.698;10.078;2023-04-24T00:58:54;4.60;;;2.80;;
15486;SDS011;7845;53.698;10.078;2023-04-24T01:01:21;4.70;;;2.63;;
15486;SDS011;7845;53.698;10.078;2023-04-24T01:03:47;4.90;;;3.23;;
15486;SDS011;7845;53.698;10.078;2023-04-24T01:06:18;3.97;;;2.50;;
15486;SDS011;7845;53.698;10.078;2023-04-24T01:08:50;4.07;;;2.37;;
15486;SDS011;7845;53.698;10.078;2023-04-24T01:11:16;3.90;;;2.40;;
15486;SDS011;7845;53.698;10.078;2023-04-24T01:13:42;4.20;;;2.70;;
15486;SDS011;7845;53.698;10.078;2023-04-24T01:16:08;4.57;;;2.60;;
15486;SDS011;7845;53.698;10.078;2023-04-24T01:18:33;4.30;;;2.37;;
15486;SDS011;7845;53.698;10.078;2023-04-24T01:20:59;5.30;;;2.67;;
15486;SDS011;7845;53.698;10.078;2023-04-24T01:23:29;5.30;;;2.90;;
15486;SDS011;7845;53.698;10.078;2023-04-24T01:25:57;6.27;;;3.33;;
15486;SDS011;7845;53.698;10.078;2023-04-24T01:28:22;5.73;;;3.90;;
15486;SDS011;7845;53.698;10.078;2023-04-24T01:30:48;4.43;;;2.70;;
15486;SDS011;7845;53.698;10.078;2023-04-24T01:33:13;5.23;;;2.87;;
15486;SDS011;7845;53.698;10.078;2023-04-24T01:35:40;4.40;;;2.70;;
15486;SDS011;7845;53.698;10.078;2023-04-24T01:38:06;4.30;;;2.70;;
15486;SDS011;7845;53.698;10.078;2023-04-24T01:40:32;4.67;;;2.93;;
15486;SDS011;7845;53.698;10.078;2023-04-24T01:42:59;6.50;;;2.87;;
15486;SDS011;7845;53.698;10.078;2023-04-24T01:45:25;4.53;;;2.90;;
15486;SDS011;7845;53.698;10.078;2023-04-24T01:47:50;4.63;;;2.63;;
15486;SDS011;7845;53.698;10.078;2023-04-24T01:50:16;6.13;;;2.50;;
15486;SDS011;7845;53.698;10.078;2023-04-24T01:52:42;4.70;;;3.17;;
15486;SDS011;7845;53.698;10.078;2023-04-24T01:55:08;4.60;;;3.20;;
15486;SDS011;7845;53.698;10.078;2023-04-24T01:57:35;4.43;;;3.30;;
15486;SDS011;7845;53.698;10.078;2023-04-24T02:00:01;4.60;;;2.77;;
15486;SDS011;7845;53.698;10.078;2023-04-24T02:02:29;5.27;;;2.90;;
15486;SDS011;7845;53.698;10.078;2023-04-24T02:04:55;6.73;;;3.20;;
15486;SDS011;7845;53.698;10.078;2023-04-24T02:07:23;4.33;;;2.90;;
15486;SDS011;7845;53.698;10.078;2023-04-24T02:09:49;4.47;;;3.10;;
15486;SDS011;7845;53.698;10.078;2023-04-24T02:12:21;5.70;;;2.67;;
15486;SDS011;7845;53.698;10.078;2023-04-24T02:14:52;4.10;;;2.73;;
15486;SDS011;7845;53.698;10.078;2023-04-24T02:17:18;4.50;;;3.00;;
15486;SDS011;7845;53.698;10.078;2023-04-24T02:19:44;4.53;;;3.13;;
15486;SDS011;7845;53.698;10.078;2023-04-24T02:22:09;4.00;;;2.63;;
15486;SDS011;7845;53.698;10.078;2023-04-24T02:24:36;3.90;;;2.30;;
15486;SDS011;7845;53.698;10.078;2023-04-24T02:27:02;4.30;;;2.70;;
15486;SDS011;7845;53.698;10.078;2023-04-24T02:29:29;4.63;;;2.47;;
15486;SDS011;7845;53.698;10.078;2023-04-24T02:31:54;5.07;;;2.83;;
15486;SDS011;7845;53.698;10.078;2023-04-24T02:34:22;3.87;;;2.33;;
15486;SDS011;7845;53.698;10.078;2023-04-24T02:36:48;3.93;;;2.40;;
15486;SDS011;7845;53.698;10.078;2023-04-24T02:39:13;4.60;;;2.30;;
15486;SDS011;7845;53.698;10.078;2023-04-24T02:41:41;4.73;;;2.40;;
15486;SDS011;7845;53.698;10.078;2023-04-24T02:44:07;5.60;;;2.87;;
15486;SDS011;7845;53.698;10.078;2023-04-24T02:46:32;3.90;;;2.07;;
15486;SDS011;7845;53.698;10.078;2023-04-24T02:48:57;3.50;;;1.97;;
15486;SDS011;7845;53.698;10.078;2023-04-24T02:51:23;3.63;;;1.90;;
15486;SDS011;7845;53.698;10.078;2023-04-24T02:53:50;3.40;;;1.80;;
15486;SDS011;7845;53.698;10.078;2023-04-24T02:56:15;4.30;;;2.10;;
15486;SDS011;7845;53.698;10.078;2023-04-24T02:58:40;4.20;;;1.97;;
15486;SDS011;7845;53.698;10.078;2023-04-24T03:01:07;3.90;;;1.87;;
15486;SDS011;7845;53.698;10.078;2023-04-24T03:03:35;3.93;;;1.67;;
15486;SDS011;7845;53.698;10.078;2023-04-24T03:06:01;3.80;;;2.17;;
15486;SDS011;7845;53.698;10.078;2023-04-24T03:08:26;3.40;;;1.77;;
15486;SDS011;7845;53.698;10.078;2023-04-24T03:10:52;3.40;;;1.83;;
15486;SDS011;7845;53.698;10.078;2023-04-24T03:13:17;4.50;;;2.33;;
15486;SDS011;7845;53.698;10.078;2023-04-24T03:15:42;4.03;;;2.37;;
15486;SDS011;7845;53.698;10.078;2023-04-24T03:18:08;3.80;;;2.30;;
15486;SDS011;7845;53.698;10.078;2023-04-24T03:20:33;3.50;;;2.00;;
15486;SDS011;7845;53.698;10.078;2023-04-24T03:23:00;4.17;;;2.20;;
15486;SDS011;7845;53.698;10.078;2023-04-24T03:25:26;3.60;;;2.00;;
15486;SDS011;7845;53.698;10.078;2023-04-24T03:27:52;3.83;;;2.10;;
15486;SDS011;7845;53.698;10.078;2023-04-24T03:30:17;3.83;;;2.07;;
15486;SDS011;7845;53.698;10.078;2023-04-24T03:32:42;3.50;;;1.87;;
15486;SDS011;7845;53.698;10.078;2023-04-24T03:35:08;3.73;;;1.90;;
15486;SDS011;7845;53.698;10.078;2023-04-24T03:37:33;3.30;;;1.80;;
15486;SDS011;7845;53.698;10.078;2023-04-24T03:39:59;3.67;;;1.90;;
15486;SDS011;7845;53.698;10.078;2023-04-24T03:42:25;3.63;;;2.20;;
15486;SDS011;7845;53.698;10.078;2023-04-24T03:44:50;3.03;;;1.40;;
15486;SDS011;7845;53.698;10.078;2023-04-24T03:47:15;4.20;;;2.00;;
15486;SDS011;7845;53.698;10.078;2023-04-24T03:49:41;3.80;;;1.70;;
15486;SDS011;7845;53.698;10.078;2023-04-24T03:52:06;3.70;;;2.17;;
15486;SDS011;7845;53.698;10.078;2023-04-24T03:54:34;3.50;;;2.23;;
15486;SDS011;7845;53.698;10.078;2023-04-24T03:57:02;3.67;;;2.07;;
15486;SDS011;7845;53.698;10.078;2023-04-24T03:59:29;3.53;;;1.87;;
15486;SDS011;7845;53.698;10.078;2023-04-24T04:01:55;3.60;;;1.73;;
15486;SDS011;7845;53.698;10.078;2023-04-24T04:04:20;3.60;;;1.70;;
15486;SDS011;7845;53.698;10.078;2023-04-24T04:06:46;3.47;;;1.87;;
15486;SDS011;7845;53.698;10.078;2023-04-24T04:09:18;3.70;;;1.70;;
15486;SDS011;7845;53.698;10.078;2023-04-24T04:11:43;3.50;;;1.93;;
15486;SDS011;7845;53.698;10.078;2023-04-24T04:14:08;3.13;;;1.70;;
15486;SDS011;7845;53.698;10.078;2023-04-24T04:16:34;3.40;;;1.80;;
15486;SDS011;7845;53.698;10.078;2023-04-24T04:19:01;3.80;;;1.90;;
15486;SDS011;7845;53.698;10.078;2023-04-24T04:21:28;3.50;;;1.83;;
15486;SDS011;7845;53.698;10.078;2023-04-24T04:23:54;3.50;;;2.00;;
15486;SDS011;7845;53.698;10.078;2023-04-24T04:26:19;3.57;;;1.77;;
15486;SDS011;7845;53.698;10.078;2023-04-24T04:28:46;3.60;;;2.23;;
15486;SDS011;7845;53.698;10.078;2023-04-24T04:31:12;3.47;;;1.90;;
15486;SDS011;7845;53.698;10.078;2023-04-24T04:33:39;3.70;;;2.20;;
15486;SDS011;7845;53.698;10.078;2023-04-24T04:36:05;3.50;;;1.83;;
15486;SDS011;7845;53.698;10.078;2023-04-24T04:38:31;3.30;;;1.70;;
15486;SDS011;7845;53.698;10.078;2023-04-24T04:40:56;3.37;;;1.80;;
15486;SDS011;7845;53.698;10.078;2023-04-24T04:43:23;3.83;;;1.67;;
15486;SDS011;7845;53.698;10.078;2023-04-24T04:45:49;3.60;;;1.77;;
15486;SDS011;7845;53.698;10.078;2023-04-24T04:48:16;3.23;;;1.50;;
15486;SDS011;7845;53.698;10.078;2023-04-24T04:50:42;3.43;;;1.70;;
15486;SDS011;7845;53.698;10.078;2023-04-24T04:53:08;3.20;;;1.80;;
15486;SDS011;7845;53.698;10.078;2023-04-24T04:55:33;3.37;;;1.80;;
15486;SDS011;7845;53.698;10.078;2023-04-24T04:58:01;3.60;;;2.00;;
15486;SDS011;7845;53.698;10.078;2023-04-24T05:00:30;3.40;;;1.60;;
15486;SDS011;7845;53.698;10.078;2023-04-24T05:03:01;3.93;;;1.80;;
15486;SDS011;7845;53.698;10.078;2023-04-24T05:05:28;3.40;;;1.70;;
15486;SDS011;7845;53.698;10.078;2023-04-24T05:07:54;3.10;;;1.60;;
15486;SDS011;7845;53.698;10.078;2023-04-24T05:10:19;3.30;;;1.60;;
15486;SDS011;7845;53.698;10.078;2023-04-24T05:12:44;3.50;;;1.40;;
15486;SDS011;7845;53.698;10.078;2023-04-24T05:15:10;3.37;;;1.47;;
15486;SDS011;7845;53.698;10.078;2023-04-24T05:17:37;3.20;;;1.47;;
15486;SDS011;7845;53.698;10.078;2023-04-24T05:20:03;3.13;;;1.47;;
15486;SDS011;7845;53.698;10.078;2023-04-24T05:22:32;3.30;;;1.43;;
15486;SDS011;7845;53.698;10.078;2023-04-24T05:24:57;3.03;;;1.30;;
15486;SDS011;7845;53.698;10.078;2023-04-24T05:27:22;3.10;;;1.20;;
15486;SDS011;7845;53.698;10.078;2023-04-24T05:29:49;3.10;;;1.30;;
15486;SDS011;7845;53.698;10.078;2023-04-24T05:32:15;3.27;;;1.77;;
15486;SDS011;7845;53.698;10.078;2023-04-24T05:34:40;3.87;;;1.60;;
15486;SDS011;7845;53.698;10.078;2023-04-24T05:37:05;3.20;;;1.20;;
15486;SDS011;7845;53.698;10.078;2023-04-24T05:39:33;3.10;;;1.10;;
15486;SDS011;7845;53.698;10.078;2023-04-24T05:42:00;2.97;;;1.20;;
15486;SDS011;7845;53.698;10.078;2023-04-24T05:44:26;3.10;;;1.20;;
15486;SDS011;7845;53.698;10.078;2023-04-24T05:46:51;3.10;;;1.30;;
15486;SDS011;7845;53.698;10.078;2023-04-24T05:49:17;2.93;;;1.40;;
15486;SDS011;7845;53.698;10.078;2023-04-24T05:51:42;2.97;;;1.30;;
15486;SDS011;7845;53.698;10.078;2023-04-24T05:54:07;3.23;;;1.30;;
15486;SDS011;7845;53.698;10.078;2023-04-24T05:56:33;2.80;;;1.23;;
15486;SDS011;7845;53.698;10.078;2023-04-24T05:58:58;2.80;;;1.50;;
15486;SDS011;7845;53.698;10.078;2023-04-24T06:01:23;3.00;;;1.43;;
15486;SDS011;7845;53.698;10.078;2023-04-24T06:03:50;3.43;;;1.33;;
15486;SDS011;7845;53.698;10.078;2023-04-24T06:06:15;2.87;;;1.23;;
15486;SDS011;7845;53.698;10.078;2023-04-24T06:08:41;3.67;;;1.77;;
15486;SDS011;7845;53.698;10.078;2023-04-24T06:11:07;2.80;;;1.20;;
15486;SDS011;7845;53.698;10.078;2023-04-24T06:13:32;2.87;;;1.20;;
15486;SDS011;7845;53.698;10.078;2023-04-24T06:15:58;4.03;;;1.83;;
15486;SDS011;7845;53.698;10.078;2023-04-24T06:18:23;3.10;;;1.60;;
15486;SDS011;7845;53.698;10.078;2023-04-24T06:20:48;4.30;;;1.87;;
15486;SDS011;7845;53.698;10.078;2023-04-24T06:23:15;3.50;;;1.80;;
15486;SDS011;7845;53.698;10.078;2023-04-24T06:25:40;3.83;;;1.90;;
15486;SDS011;7845;53.698;10.078;2023-04-24T06:28:16;3.10;;;1.63;;
15486;SDS011;7845;53.698;10.078;2023-04-24T06:30:41;3.10;;;1.80;;
15486;SDS011;7845;53.698;10.078;2023-04-24T06:33:08;4.10;;;1.80;;
15486;SDS011;7845;53.698;10.078;2023-04-24T06:35:34;3.30;;;2.20;;
15486;SDS011;7845;53.698;10.078;2023-04-24T06:38:03;4.30;;;1.70;;
15486;SDS011;7845;53.698;10.078;2023-04-24T06:40:28;3.17;;;1.93;;
15486;SDS011;7845;53.698;10.078;2023-04-24T06:42:54;3.50;;;1.57;;
15486;SDS011;7845;53.698;10.078;2023-04-24T06:45:19;3.20;;;2.03;;
15486;SDS011;7845;53.698;10.078;2023-04-24T06:47:44;3.17;;;1.70;;
15486;SDS011;7845;53.698;10.078;2023-04-24T06:50:10;3.17;;;1.40;;
15486;SDS011;7845;53.698;10.078;2023-04-24T06:52:36;3.43;;;1.87;;
15486;SDS011;7845;53.698;10.078;2023-04-24T06:55:05;3.30;;;1.60;;
15486;SDS011;7845;53.698;10.078;2023-04-24T06:57:31;3.27;;;1.63;;
15486;SDS011;7845;53.698;10.078;2023-04-24T06:59:59;4.13;;;1.93;;
15486;SDS011;7845;53.698;10.078;2023-04-24T07:02:25;3.10;;;1.57;;
15486;SDS011;7845;53.698;10.078;2023-04-24T07:04:56;3.67;;;1.57;;
15486;SDS011;7845;53.698;10.078;2023-04-24T07:07:22;2.87;;;1.40;;
15486;SDS011;7845;53.698;10.078;2023-04-24T07:09:48;3.17;;;1.57;;
15486;SDS011;7845;53.698;10.078;2023-04-24T07:12:14;3.40;;;1.70;;
15486;SDS011;7845;53.698;10.078;2023-04-24T07:14:39;3.23;;;1.73;;
15486;SDS011;7845;53.698;10.078;2023-04-24T07:17:05;3.77;;;1.80;;
15486;SDS011;7845;53.698;10.078;2023-04-24T07:19:31;3.47;;;1.70;;
15486;SDS011;7845;53.698;10.078;2023-04-24T07:22:01;3.20;;;1.60;;
15486;SDS011;7845;53.698;10.078;2023-04-24T07:24:27;3.17;;;1.70;;
15486;SDS011;7845;53.698;10.078;2023-04-24T07:26:53;3.67;;;1.97;;
15486;SDS011;7845;53.698;10.078;2023-04-24T07:29:19;3.50;;;1.77;;
15486;SDS011;7845;53.698;10.078;2023-04-24T07:31:47;3.20;;;1.80;;
15486;SDS011;7845;53.698;10.078;2023-04-24T07:34:13;3.93;;;1.87;;
15486;SDS011;7845;53.698;10.078;2023-04-24T07:36:41;3.10;;;1.60;;
15486;SDS011;7845;53.698;10.078;2023-04-24T07:39:17;3.73;;;1.60;;
15486;SDS011;7845;53.698;10.078;2023-04-24T07:41:43;3.20;;;2.00;;
15486;SDS011;7845;53.698;10.078;2023-04-24T07:44:08;3.03;;;1.83;;
15486;SDS011;7845;53.698;10.078;2023-04-24T07:46:34;3.20;;;2.03;;
15486;SDS011;7845;53.698;10.078;2023-04-24T07:48:59;3.50;;;1.60;;
15486;SDS011;7845;53.698;10.078;2023-04-24T07:51:26;3.07;;;1.70;;
15486;SDS011;7845;53.698;10.078;2023-04-24T07:53:55;4.07;;;1.90;;
15486;SDS011;7845;53.698;10.078;2023-04-24T07:56:21;3.30;;;1.70;;
15486;SDS011;7845;53.698;10.078;2023-04-24T07:58:46;3.10;;;1.70;;
15486;SDS011;7845;53.698;10.078;2023-04-24T08:01:12;3.10;;;2.00;;
15486;SDS011;7845;53.698;10.078;2023-04-24T08:03:37;3.07;;;1.50;;
15486;SDS011;7845;53.698;10.078;2023-04-24T08:06:04;4.00;;;2.40;;
15486;SDS011;7845;53.698;10.078;2023-04-24T08:08:29;3.70;;;2.27;;
15486;SDS011;7845;53.698;10.078;2023-04-24T08:10:54;4.57;;;2.60;;
15486;SDS011;7845;53.698;10.078;2023-04-24T08:13:20;3.70;;;2.60;;
15486;SDS011;7845;53.698;10.078;2023-04-24T08:15:45;4.50;;;2.90;;
15486;SDS011;7845;53.698;10.078;2023-04-24T08:18:11;4.20;;;2.87;;
15486;SDS011;7845;53.698;10.078;2023-04-24T08:20:37;4.03;;;2.67;;
15486;SDS011;7845;53.698;10.078;2023-04-24T08:23:06;3.80;;;2.20;;
15486;SDS011;7845;53.698;10.078;2023-04-24T08:25:31;4.60;;;2.73;;
15486;SDS011;7845;53.698;10.078;2023-04-24T08:27:57;4.10;;;2.50;;
15486;SDS011;7845;53.698;10.078;2023-04-24T08:30:22;3.87;;;3.00;;
15486;SDS011;7845;53.698;10.078;2023-04-24T08:32:48;3.90;;;2.90;;
15486;SDS011;7845;53.698;10.078;2023-04-24T08:35:13;4.50;;;2.80;;
15486;SDS011;7845;53.698;10.078;2023-04-24T08:37:38;4.30;;;2.43;;
15486;SDS011;7845;53.698;10.078;2023-04-24T08:40:05;3.97;;;2.70;;
15486;SDS011;7845;53.698;10.078;2023-04-24T08:42:36;3.47;;;2.23;;
15486;SDS011;7845;53.698;10.078;2023-04-24T08:45:03;4.20;;;2.20;;
15486;SDS011;7845;53.698;10.078;2023-04-24T08:47:30;3.83;;;2.93;;
15486;SDS011;7845;53.698;10.078;2023-04-24T08:49:56;4.10;;;3.10;;
15486;SDS011;7845;53.698;10.078;2023-04-24T08:52:22;4.40;;;2.70;;
15486;SDS011;7845;53.698;10.078;2023-04-24T08:54:49;4.27;;;3.07;;
15486;SDS011;7845;53.698;10.078;2023-04-24T08:57:15;3.80;;;2.67;;
15486;SDS011;7845;53.698;10.078;2023-04-24T08:59:41;3.33;;;2.20;;
15486;SDS011;7845;53.698;10.078;2023-04-24T09:02:10;3.43;;;2.50;;
15486;SDS011;7845;53.698;10.078;2023-04-24T09:04:36;4.20;;;2.80;;
15486;SDS011;7845;53.698;10.078;2023-04-24T09:07:02;4.30;;;2.93;;
15486;SDS011;7845;53.698;10.078;2023-04-24T09:09:32;4.50;;;3.23;;
15486;SDS011;7845;53.698;10.078;2023-04-24T09:11:58;4.10;;;2.60;;
15486;SDS011;7845;53.698;10.078;2023-04-24T09:14:24;4.80;;;3.00;;
15486;SDS011;7845;53.698;10.078;2023-04-24T09:16:50;4.00;;;2.87;;
15486;SDS011;7845;53.698;10.078;2023-04-24T09:19:16;3.80;;;2.57;;
15486;SDS011;7845;53.698;10.078;2023-04-24T09:21:41;4.00;;;2.90;;
15486;SDS011;7845;53.698;10.078;2023-04-24T09:24:17;3.77;;;2.50;;
15486;SDS011;7845;53.698;10.078;2023-04-24T09:26:45;4.37;;;2.50;;
15486;SDS011;7845;53.698;10.078;2023-04-24T09:29:15;4.30;;;2.37;;
15486;SDS011;7845;53.698;10.078;2023-04-24T09:31:41;4.47;;;3.50;;
15486;SDS011;7845;53.698;10.078;2023-04-24T09:34:07;4.30;;;3.00;;
15486;SDS011;7845;53.698;10.078;2023-04-24T09:36:36;4.90;;;2.97;;
15486;SDS011;7845;53.698;10.078;2023-04-24T09:39:13;5.60;;;2.97;;
15486;SDS011;7845;53.698;10.078;2023-04-24T09:41:54;4.03;;;2.93;;
15486;SDS011;7845;53.698;10.078;2023-04-24T09:44:24;4.50;;;3.17;;
15486;SDS011;7845;53.698;10.078;2023-04-24T09:46:52;4.33;;;3.30;;
15486;SDS011;7845;53.698;10.078;2023-04-24T09:49:23;4.90;;;3.50;;
15486;SDS011;7845;53.698;10.078;2023-04-24T09:51:50;6.30;;;3.70;;
15486;SDS011;7845;53.698;10.078;2023-04-24T09:54:19;4.67;;;3.00;;
15486;SDS011;7845;53.698;10.078;2023-04-24T09:56:47;4.40;;;2.90;;
15486;SDS011;7845;53.698;10.078;2023-04-24T09:59:15;3.70;;;2.30;;
15486;SDS011;7845;53.698;10.078;2023-04-24T10:01:42;3.90;;;2.60;;
15486;SDS011;7845;53.698;10.078;2023-04-24T10:04:16;3.50;;;2.30;;
15486;SDS011;7845;53.698;10.078;2023-04-24T10:06:47;3.70;;;2.47;;
15486;SDS011;7845;53.698;10.078;2023-04-24T10:09:14;3.93;;;2.73;;
15486;SDS011;7845;53.698;10.078;2023-04-24T10:11:44;3.73;;;2.57;;
15486;SDS011;7845;53.698;10.078;2023-04-24T10:14:15;4.43;;;3.03;;
15486;SDS011;7845;53.698;10.078;2023-04-24T10:16:43;4.50;;;2.87;;
15486;SDS011;7845;53.698;10.078;2023-04-24T10:19:12;4.23;;;3.10;;
15486;SDS011;7845;53.698;10.078;2023-04-24T10:21:38;5.10;;;3.17;;
15486;SDS011;7845;53.698;10.078;2023-04-24T10:24:07;5.77;;;3.77;;
15486;SDS011;7845;53.698;10.078;2023-04-24T10:26:34;4.50;;;3.27;;
15486;SDS011;7845;53.698;10.078;2023-04-24T10:29:00;5.30;;;3.50;;
15486;SDS011;7845;53.698;10.078;2023-04-24T10:31:25;4.63;;;2.93;;
15486;SDS011;7845;53.698;10.078;2023-04-24T10:33:55;4.70;;;3.90;;
15486;SDS011;7845;53.698;10.078;2023-04-24T10:36:23;6.47;;;4.90;;
15486;SDS011;7845;53.698;10.078;2023-04-24T10:38:51;5.10;;;4.07;;
15486;SDS011;7845;53.698;10.078;2023-04-24T10:41:19;4.87;;;3.47;;
15486;SDS011;7845;53.698;10.078;2023-04-24T10:44:07;5.90;;;4.17;;
15486;SDS011;7845;53.698;10.078;2023-04-24T10:46:33;5.03;;;3.10;;
15486;SDS011;7845;53.698;10.078;2023-04-24T10:48:59;5.30;;;3.60;;
15486;SDS011;7845;53.698;10.078;2023-04-24T10:51:47;6.03;;;4.60;;
15486;SDS011;7845;53.698;10.078;2023-04-24T10:54:24;5.60;;;4.20;;
15486;SDS011;7845;53.698;10.078;2023-04-24T10:56:51;5.67;;;4.37;;
15486;SDS011;7845;53.698;10.078;2023-04-24T10:59:24;5.43;;;4.17;;
15486;SDS011;7845;53.698;10.078;2023-04-24T11:01:54;7.27;;;4.40;;
15486;SDS011;7845;53.698;10.078;2023-04-24T11:04:30;5.70;;;4.80;;
15486;SDS011;7845;53.698;10.078;2023-04-24T11:06:56;5.23;;;4.13;;
15486;SDS011;7845;53.698;10.078;2023-04-24T11:09:22;5.57;;;4.20;;
15486;SDS011;7845;53.698;10.078;2023-04-24T11:11:53;5.13;;;4.23;;
15486;SDS011;7845;53.698;10.078;2023-04-24T11:14:29;6.60;;;4.53;;
15486;SDS011;7845;53.698;10.078;2023-04-24T11:16:54;6.30;;;5.00;;
15486;SDS011;7845;53.698;10.078;2023-04-24T11:19:23;7.00;;;5.30;;
15486;SDS011;7845;53.698;10.078;2023-04-24T11:22:13;6.00;;;4.93;;
15486;SDS011;7845;53.698;10.078;2023-04-24T11:24:49;5.77;;;4.53;;
15486;SDS011;7845;53.698;10.078;2023-04-24T11:27:19;5.47;;;4.40;;
15486;SDS011;7845;53.698;10.078;2023-04-24T11:32:30;5.93;;;3.73;;
15486;SDS011;7845;53.698;10.078;2023-04-24T11:34:57;7.37;;;4.90;;
15486;SDS011;7845;53.698;10.078;2023-04-24T11:37:24;5.67;;;4.70;;
15486;SDS011;7845;53.698;10.078;2023-04-24T11:39:53;5.93;;;4.80;;
15486;SDS011;7845;53.698;10.078;2023-04-24T11:42:19;5.90;;;4.23;;
15486;SDS011;7845;53.698;10.078;2023-04-24T11:44:49;6.40;;;4.90;;
15486;SDS011;7845;53.698;10.078;2023-04-24T11:47:15;5.93;;;4.70;;
15486;SDS011;7845;53.698;10.078;2023-04-24T11:49:41;5.97;;;4.80;;
15486;SDS011;7845;53.698;10.078;2023-04-24T11:52:06;6.47;;;4.57;;
15486;SDS011;7845;53.698;10.078;2023-04-24T11:54:32;6.80;;;4.47;;
15486;SDS011;7845;53.698;10.078;2023-04-24T11:56:57;6.80;;;3.30;;
15486;SDS011;7845;53.698;10.078;2023-04-24T11:59:23;5.47;;;4.07;;
15486;SDS011;7845;53.698;10.078;2023-04-24T12:01:48;4.93;;;4.13;;
15486;SDS011;7845;53.698;10.078;2023-04-24T12:04:15;6.70;;;4.67;;
15486;SDS011;7845;53.698;10.078;2023-04-24T12:09:55;7.23;;;5.80;;
15486;SDS011;7845;53.698;10.078;2023-04-24T12:12:24;5.30;;;4.23;;
15486;SDS011;7845;53.698;10.078;2023-04-24T12:14:55;6.53;;;4.50;;
15486;SDS011;7845;53.698;10.078;2023-04-24T12:17:32;7.03;;;6.33;;
15486;SDS011;7845;53.698;10.078;2023-04-24T12:20:03;4.97;;;4.00;;
15486;SDS011;7845;53.698;10.078;2023-04-24T12:25:13;5.80;;;5.20;;
15486;SDS011;7845;53.698;10.078;2023-04-24T12:27:43;5.27;;;3.90;;
15486;SDS011;7845;53.698;10.078;2023-04-24T12:30:16;5.07;;;4.00;;
15486;SDS011;7845;53.698;10.078;2023-04-24T12:32:45;6.93;;;4.13;;
15486;SDS011;7845;53.698;10.078;2023-04-24T12:35:12;5.90;;;4.40;;
15486;SDS011;7845;53.698;10.078;2023-04-24T12:37:38;4.23;;;3.43;;
15486;SDS011;7845;53.698;10.078;2023-04-24T12:40:08;5.30;;;2.90;;
15486;SDS011;7845;53.698;10.078;2023-04-24T12:42:35;3.87;;;2.60;;
15486;SDS011;7845;53.698;10.078;2023-04-24T12:45:06;5.07;;;3.70;;
15486;SDS011;7845;53.698;10.078;2023-04-24T12:47:33;6.57;;;3.57;;
15486;SDS011;7845;53.698;10.078;2023-04-24T12:49:59;5.00;;;3.70;;
15486;SDS011;7845;53.698;10.078;2023-04-24T12:52:26;5.70;;;4.10;;
15486;SDS011;7845;53.698;10.078;2023-04-24T12:54:53;4.03;;;3.00;;
15486;SDS011;7845;53.698;10.078;2023-04-24T12:57:20;5.03;;;4.03;;
15486;SDS011;7845;53.698;10.078;2023-04-24T12:59:46;5.70;;;3.53;;
15486;SDS011;7845;53.698;10.078;2023-04-24T13:02:11;5.30;;;4.27;;
15486;SDS011;7845;53.698;10.078;2023-04-24T13:04:37;6.30;;;3.60;;
15486;SDS011;7845;53.698;10.078;2023-04-24T13:07:02;5.00;;;3.50;;
15486;SDS011;7845;53.698;10.078;2023-04-24T13:09:29;4.93;;;3.80;;
15486;SDS011;7845;53.698;10.078;2023-04-24T13:11:56;5.03;;;3.70;;
15486;SDS011;7845;53.698;10.078;2023-04-24T13:14:22;3.97;;;3.10;;
15486;SDS011;7845;53.698;10.078;2023-04-24T13:16:47;4.63;;;3.47;;
15486;SDS011;7845;53.698;10.078;2023-04-24T13:19:13;5.10;;;3.77;;
15486;SDS011;7845;53.698;10.078;2023-04-24T13:21:38;4.47;;;3.00;;
15486;SDS011;7845;53.698;10.078;2023-04-24T13:24:04;4.97;;;3.60;;
15486;SDS011;7845;53.698;10.078;2023-04-24T13:26:30;4.77;;;3.60;;
15486;SDS011;7845;53.698;10.078;2023-04-24T13:28:55;4.27;;;3.27;;
15486;SDS011;7845;53.698;10.078;2023-04-24T13:31:21;4.90;;;3.63;;
15486;SDS011;7845;53.698;10.078;2023-04-24T13:33:47;4.50;;;2.53;;
15486;SDS011;7845;53.698;10.078;2023-04-24T13:36:13;5.47;;;2.97;;
15486;SDS011;7845;53.698;10.078;2023-04-24T13:38:38;3.87;;;2.67;;
15486;SDS011;7845;53.698;10.078;2023-04-24T13:41:04;3.70;;;2.40;;
15486;SDS011;7845;53.698;10.078;2023-04-24T13:43:29;4.83;;;2.50;;
15486;SDS011;7845;53.698;10.078;2023-04-24T13:45:55;3.73;;;2.67;;
15486;SDS011;7845;53.698;10.078;2023-04-24T13:48:20;4.30;;;3.37;;
15486;SDS011;7845;53.698;10.078;2023-04-24T13:50:46;3.63;;;2.40;;
15486;SDS011;7845;53.698;10.078;2023-04-24T13:53:13;4.47;;;3.50;;
15486;SDS011;7845;53.698;10.078;2023-04-24T13:55:40;3.70;;;2.70;;
15486;SDS011;7845;53.698;10.078;2023-04-24T13:58:05;4.73;;;3.30;;
15486;SDS011;7845;53.698;10.078;2023-04-24T14:00:31;6.70;;;3.90;;
15486;SDS011;7845;53.698;10.078;2023-04-24T14:02:56;4.33;;;2.83;;
15486;SDS011;7845;53.698;10.078;2023-04-24T14:05:22;4.50;;;3.00;;
15486;SDS011;7845;53.698;10.078;2023-04-24T14:07:47;4.20;;;3.23;;
15486;SDS011;7845;53.698;10.078;2023-04-24T14:10:12;3.93;;;2.83;;
15486;SDS011;7845;53.698;10.078;2023-04-24T14:12:38;4.10;;;2.80;;
15486;SDS011;7845;53.698;10.078;2023-04-24T14:15:03;5.93;;;3.87;;
15486;SDS011;7845;53.698;10.078;2023-04-24T14:17:30;9.40;;;4.77;;
15486;SDS011;7845;53.698;10.078;2023-04-24T14:19:55;4.77;;;3.97;;
15486;SDS011;7845;53.698;10.078;2023-04-24T14:22:21;4.67;;;3.53;;
15486;SDS011;7845;53.698;10.078;2023-04-24T14:24:47;6.50;;;3.57;;
15486;SDS011;7845;53.698;10.078;2023-04-24T14:27:13;4.40;;;3.37;;
15486;SDS011;7845;53.698;10.078;2023-04-24T14:29:39;4.10;;;2.80;;
15486;SDS011;7845;53.698;10.078;2023-04-24T14:32:05;4.33;;;3.40;;
15486;SDS011;7845;53.698;10.078;2023-04-24T14:34:31;3.90;;;3.10;;
15486;SDS011;7845;53.698;10.078;2023-04-24T14:36:56;4.90;;;3.40;;
15486;SDS011;7845;53.698;10.078;2023-04-24T14:39:23;5.03;;;3.00;;
15486;SDS011;7845;53.698;10.078;2023-04-24T14:41:49;4.93;;;3.67;;
15486;SDS011;7845;53.698;10.078;2023-04-24T14:44:14;4.10;;;3.20;;
15486;SDS011;7845;53.698;10.078;2023-04-24T14:46:39;3.43;;;2.50;;
15486;SDS011;7845;53.698;10.078;2023-04-24T14:49:04;6.07;;;2.93;;
15486;SDS011;7845;53.698;10.078;2023-04-24T14:51:30;5.13;;;3.33;;
15486;SDS011;7845;53.698;10.078;2023-04-24T14:53:55;5.47;;;4.30;;
15486;SDS011;7845;53.698;10.078;2023-04-24T14:56:23;4.60;;;3.97;;